sensor_id;sensor_type;location;lat;lon;timestamp;P1;durP1;ratioP1;P2;durP2;ratioP2
8698;SDS011;4386;51.236;6.742;2022-08-21T00:00:39;13.67;;;5.33;;
8698;SDS011;4386;51.236;6.742;2022-08-21T00:01:46;8.70;;;6.10;;
8698;SDS011;4386;51.236;6.742;2022-08-21T00:02:50;7.30;;;4.93;;
8698;SDS011;4386;51.236;6.742;2022-08-21T00:03:55;8.37;;;5.70;;
8698;SDS011;4386;51.236;6.742;2022-08-21T00:04:58;8.40;;;6.03;;
8698;SDS011;4386;51.236;6.742;2022-08-21T00:06:03;8.70;;;6.20;;
8698;SDS011;4386;51.236;6.742;2022-08-21T00:07:08;16.33;;;5.83;;
8698;SDS011;4386;51.236;6.742;2022-08-21T00:08:11;9.43;;;5.70;;
8698;SDS011;4386;51.236;6.742;2022-08-21T00:09:16;16.10;;;6.30;;
8698;SDS011;4386;51.236;6.742;2022-08-21T00:10:19;12.90;;;5.53;;
8698;SDS011;4386;51.236;6.742;2022-08-21T00:11:22;10.10;;;5.80;;
8698;SDS011;4386;51.236;6.742;2022-08-21T00:12:23;17.13;;;6.23;;
8698;SDS011;4386;51.236;6.742;2022-08-21T00:13:26;12.63;;;6.27;;
8698;SDS011;4386;51.236;6.742;2022-08-21T00:14:29;7.47;;;5.33;;
8698;SDS011;4386;51.236;6.742;2022-08-21T00:15:36;12.60;;;5.63;;
8698;SDS011;4386;51.236;6.742;2022-08-21T00:16:39;6.40;;;5.10;;
8698;SDS011;4386;51.236;6.742;2022-08-21T00:17:44;10.90;;;5.30;;
8698;SDS011;4386;51.236;6.742;2022-08-21T00:18:46;9.60;;;5.60;;
8698;SDS011;4386;51.236;6.742;2022-08-21T00:19:49;10.27;;;6.20;;
8698;SDS011;4386;51.236;6.742;2022-08-21T00:20:52;18.13;;;7.37;;
8698;SDS011;4386;51.236;6.742;2022-08-21T00:21:55;14.83;;;6.60;;
8698;SDS011;4386;51.236;6.742;2022-08-21T00:22:59;6.93;;;5.30;;
8698;SDS011;4386;51.236;6.742;2022-08-21T00:24:02;16.80;;;5.70;;
8698;SDS011;4386;51.236;6.742;2022-08-21T00:25:10;15.13;;;6.53;;
8698;SDS011;4386;51.236;6.742;2022-08-21T00:26:15;11.10;;;5.60;;
8698;SDS011;4386;51.236;6.742;2022-08-21T00:27:20;11.03;;;5.10;;
8698;SDS011;4386;51.236;6.742;2022-08-21T00:28:25;10.67;;;5.70;;
8698;SDS011;4386;51.236;6.742;2022-08-21T00:29:29;8.67;;;5.83;;
8698;SDS011;4386;51.236;6.742;2022-08-21T00:30:31;13.77;;;5.37;;
8698;SDS011;4386;51.236;6.742;2022-08-21T00:31:34;11.70;;;5.33;;
8698;SDS011;4386;51.236;6.742;2022-08-21T00:32:37;12.77;;;5.97;;
8698;SDS011;4386;51.236;6.742;2022-08-21T00:33:49;8.10;;;5.30;;
8698;SDS011;4386;51.236;6.742;2022-08-21T00:35:02;8.50;;;5.20;;
8698;SDS011;4386;51.236;6.742;2022-08-21T00:36:05;12.47;;;5.60;;
8698;SDS011;4386;51.236;6.742;2022-08-21T00:37:14;13.43;;;6.00;;
8698;SDS011;4386;51.236;6.742;2022-08-21T00:38:16;11.30;;;5.60;;
8698;SDS011;4386;51.236;6.742;2022-08-21T00:39:20;12.27;;;5.80;;
8698;SDS011;4386;51.236;6.742;2022-08-21T00:40:24;8.60;;;5.90;;
8698;SDS011;4386;51.236;6.742;2022-08-21T00:41:30;12.80;;;5.60;;
8698;SDS011;4386;51.236;6.742;2022-08-21T00:42:41;13.33;;;5.97;;
8698;SDS011;4386;51.236;6.742;2022-08-21T00:43:53;6.30;;;5.30;;
8698;SDS011;4386;51.236;6.742;2022-08-21T00:44:57;8.20;;;6.03;;
8698;SDS011;4386;51.236;6.742;2022-08-21T00:45:59;17.00;;;6.13;;
8698;SDS011;4386;51.236;6.742;2022-08-21T00:47:07;15.20;;;6.23;;
8698;SDS011;4386;51.236;6.742;2022-08-21T00:48:12;9.60;;;5.63;;
8698;SDS011;4386;51.236;6.742;2022-08-21T00:49:17;9.07;;;5.90;;
8698;SDS011;4386;51.236;6.742;2022-08-21T00:50:21;12.30;;;6.37;;
8698;SDS011;4386;51.236;6.742;2022-08-21T00:51:27;13.67;;;5.73;;
8698;SDS011;4386;51.236;6.742;2022-08-21T00:52:38;8.57;;;5.60;;
8698;SDS011;4386;51.236;6.742;2022-08-21T00:53:43;11.40;;;5.67;;
8698;SDS011;4386;51.236;6.742;2022-08-21T00:54:54;12.20;;;6.20;;
8698;SDS011;4386;51.236;6.742;2022-08-21T00:56:01;9.53;;;6.17;;
8698;SDS011;4386;51.236;6.742;2022-08-21T00:57:07;12.83;;;6.07;;
8698;SDS011;4386;51.236;6.742;2022-08-21T00:58:15;13.50;;;6.30;;
8698;SDS011;4386;51.236;6.742;2022-08-21T00:59:19;8.07;;;5.50;;
8698;SDS011;4386;51.236;6.742;2022-08-21T01:00:24;12.30;;;5.67;;
8698;SDS011;4386;51.236;6.742;2022-08-21T01:01:32;8.60;;;6.30;;
8698;SDS011;4386;51.236;6.742;2022-08-21T01:02:35;12.73;;;6.00;;
8698;SDS011;4386;51.236;6.742;2022-08-21T01:03:39;7.87;;;5.53;;
8698;SDS011;4386;51.236;6.742;2022-08-21T01:04:47;17.23;;;6.27;;
8698;SDS011;4386;51.236;6.742;2022-08-21T01:05:48;9.20;;;6.00;;
8698;SDS011;4386;51.236;6.742;2022-08-21T01:06:52;15.93;;;6.20;;
8698;SDS011;4386;51.236;6.742;2022-08-21T01:07:54;11.73;;;7.00;;
8698;SDS011;4386;51.236;6.742;2022-08-21T01:08:58;11.03;;;6.13;;
8698;SDS011;4386;51.236;6.742;2022-08-21T01:09:59;8.60;;;6.50;;
8698;SDS011;4386;51.236;6.742;2022-08-21T01:11:02;11.80;;;7.20;;
8698;SDS011;4386;51.236;6.742;2022-08-21T01:12:05;15.47;;;6.93;;
8698;SDS011;4386;51.236;6.742;2022-08-21T01:13:10;10.53;;;7.30;;
8698;SDS011;4386;51.236;6.742;2022-08-21T01:14:14;15.23;;;7.67;;
8698;SDS011;4386;51.236;6.742;2022-08-21T01:15:19;12.40;;;7.00;;
8698;SDS011;4386;51.236;6.742;2022-08-21T01:16:23;11.53;;;7.13;;
8698;SDS011;4386;51.236;6.742;2022-08-21T01:17:26;19.90;;;8.47;;
8698;SDS011;4386;51.236;6.742;2022-08-21T01:18:28;8.67;;;6.23;;
8698;SDS011;4386;51.236;6.742;2022-08-21T01:19:31;10.50;;;6.73;;
8698;SDS011;4386;51.236;6.742;2022-08-21T01:20:34;20.37;;;8.17;;
8698;SDS011;4386;51.236;6.742;2022-08-21T01:21:39;14.73;;;8.00;;
8698;SDS011;4386;51.236;6.742;2022-08-21T01:22:44;16.00;;;6.93;;
8698;SDS011;4386;51.236;6.742;2022-08-21T01:23:47;13.73;;;6.77;;
8698;SDS011;4386;51.236;6.742;2022-08-21T01:24:51;12.20;;;7.00;;
8698;SDS011;4386;51.236;6.742;2022-08-21T01:25:54;16.27;;;7.47;;
8698;SDS011;4386;51.236;6.742;2022-08-21T01:26:55;16.40;;;8.33;;
8698;SDS011;4386;51.236;6.742;2022-08-21T01:27:59;15.97;;;6.80;;
8698;SDS011;4386;51.236;6.742;2022-08-21T01:29:07;13.83;;;7.07;;
8698;SDS011;4386;51.236;6.742;2022-08-21T01:30:15;9.17;;;7.33;;
8698;SDS011;4386;51.236;6.742;2022-08-21T01:31:19;17.47;;;8.07;;
8698;SDS011;4386;51.236;6.742;2022-08-21T01:32:27;10.13;;;7.23;;
8698;SDS011;4386;51.236;6.742;2022-08-21T01:33:29;10.97;;;6.77;;
8698;SDS011;4386;51.236;6.742;2022-08-21T01:34:32;12.90;;;8.27;;
8698;SDS011;4386;51.236;6.742;2022-08-21T01:35:35;11.67;;;7.27;;
8698;SDS011;4386;51.236;6.742;2022-08-21T01:36:44;17.07;;;8.10;;
8698;SDS011;4386;51.236;6.742;2022-08-21T01:37:47;20.00;;;8.47;;
8698;SDS011;4386;51.236;6.742;2022-08-21T01:38:50;15.33;;;8.50;;
8698;SDS011;4386;51.236;6.742;2022-08-21T01:39:52;14.53;;;8.97;;
8698;SDS011;4386;51.236;6.742;2022-08-21T01:40:55;16.53;;;7.97;;
8698;SDS011;4386;51.236;6.742;2022-08-21T01:41:57;15.60;;;9.13;;
8698;SDS011;4386;51.236;6.742;2022-08-21T01:43:00;10.17;;;7.43;;
8698;SDS011;4386;51.236;6.742;2022-08-21T01:44:02;11.83;;;7.60;;
8698;SDS011;4386;51.236;6.742;2022-08-21T01:45:06;14.60;;;8.93;;
8698;SDS011;4386;51.236;6.742;2022-08-21T01:46:09;9.93;;;8.50;;
8698;SDS011;4386;51.236;6.742;2022-08-21T01:47:16;12.87;;;8.90;;
8698;SDS011;4386;51.236;6.742;2022-08-21T01:48:19;11.13;;;8.00;;
8698;SDS011;4386;51.236;6.742;2022-08-21T01:49:21;13.73;;;9.17;;
8698;SDS011;4386;51.236;6.742;2022-08-21T01:50:23;15.20;;;8.43;;
8698;SDS011;4386;51.236;6.742;2022-08-21T01:51:26;11.70;;;8.80;;
8698;SDS011;4386;51.236;6.742;2022-08-21T01:52:29;13.93;;;8.57;;
8698;SDS011;4386;51.236;6.742;2022-08-21T01:53:33;16.13;;;7.80;;
8698;SDS011;4386;51.236;6.742;2022-08-21T01:54:38;14.10;;;9.20;;
8698;SDS011;4386;51.236;6.742;2022-08-21T01:55:39;15.97;;;10.50;;
8698;SDS011;4386;51.236;6.742;2022-08-21T01:56:44;17.43;;;9.20;;
8698;SDS011;4386;51.236;6.742;2022-08-21T01:57:53;17.03;;;9.13;;
8698;SDS011;4386;51.236;6.742;2022-08-21T01:58:56;16.33;;;9.00;;
8698;SDS011;4386;51.236;6.742;2022-08-21T01:59:58;16.60;;;9.50;;
8698;SDS011;4386;51.236;6.742;2022-08-21T02:01:04;16.83;;;10.80;;
8698;SDS011;4386;51.236;6.742;2022-08-21T02:02:06;14.00;;;9.20;;
8698;SDS011;4386;51.236;6.742;2022-08-21T02:03:09;10.83;;;8.77;;
8698;SDS011;4386;51.236;6.742;2022-08-21T02:04:11;15.60;;;9.60;;
8698;SDS011;4386;51.236;6.742;2022-08-21T02:05:13;21.83;;;9.73;;
8698;SDS011;4386;51.236;6.742;2022-08-21T02:06:15;14.47;;;9.70;;
8698;SDS011;4386;51.236;6.742;2022-08-21T02:07:19;11.47;;;9.83;;
8698;SDS011;4386;51.236;6.742;2022-08-21T02:08:22;11.53;;;9.03;;
8698;SDS011;4386;51.236;6.742;2022-08-21T02:09:26;13.60;;;10.33;;
8698;SDS011;4386;51.236;6.742;2022-08-21T02:10:31;16.53;;;10.20;;
8698;SDS011;4386;51.236;6.742;2022-08-21T02:11:34;14.73;;;10.93;;
8698;SDS011;4386;51.236;6.742;2022-08-21T02:12:38;14.47;;;10.37;;
8698;SDS011;4386;51.236;6.742;2022-08-21T02:13:39;15.83;;;9.73;;
8698;SDS011;4386;51.236;6.742;2022-08-21T02:14:42;15.33;;;9.37;;
8698;SDS011;4386;51.236;6.742;2022-08-21T02:15:44;12.83;;;9.60;;
8698;SDS011;4386;51.236;6.742;2022-08-21T02:16:46;11.23;;;10.10;;
8698;SDS011;4386;51.236;6.742;2022-08-21T02:17:50;11.83;;;10.63;;
8698;SDS011;4386;51.236;6.742;2022-08-21T02:18:53;15.07;;;9.73;;
8698;SDS011;4386;51.236;6.742;2022-08-21T02:19:55;15.43;;;11.10;;
8698;SDS011;4386;51.236;6.742;2022-08-21T02:20:57;13.40;;;9.60;;
8698;SDS011;4386;51.236;6.742;2022-08-21T02:21:59;14.27;;;10.43;;
8698;SDS011;4386;51.236;6.742;2022-08-21T02:23:02;13.90;;;10.03;;
8698;SDS011;4386;51.236;6.742;2022-08-21T02:24:07;17.50;;;10.20;;
8698;SDS011;4386;51.236;6.742;2022-08-21T02:25:11;16.10;;;11.70;;
8698;SDS011;4386;51.236;6.742;2022-08-21T02:26:13;16.53;;;10.40;;
8698;SDS011;4386;51.236;6.742;2022-08-21T02:27:16;19.27;;;10.40;;
8698;SDS011;4386;51.236;6.742;2022-08-21T02:28:26;13.80;;;10.37;;
8698;SDS011;4386;51.236;6.742;2022-08-21T02:29:29;13.03;;;9.83;;
8698;SDS011;4386;51.236;6.742;2022-08-21T02:30:33;19.10;;;10.07;;
8698;SDS011;4386;51.236;6.742;2022-08-21T02:31:38;13.93;;;10.90;;
8698;SDS011;4386;51.236;6.742;2022-08-21T02:32:40;17.40;;;10.47;;
8698;SDS011;4386;51.236;6.742;2022-08-21T02:33:43;14.60;;;10.93;;
8698;SDS011;4386;51.236;6.742;2022-08-21T02:34:45;15.93;;;9.90;;
8698;SDS011;4386;51.236;6.742;2022-08-21T02:35:48;10.40;;;9.30;;
8698;SDS011;4386;51.236;6.742;2022-08-21T02:36:50;16.53;;;10.63;;
8698;SDS011;4386;51.236;6.742;2022-08-21T02:38:03;11.17;;;9.23;;
8698;SDS011;4386;51.236;6.742;2022-08-21T02:39:08;10.90;;;9.30;;
8698;SDS011;4386;51.236;6.742;2022-08-21T02:40:11;15.50;;;9.10;;
8698;SDS011;4386;51.236;6.742;2022-08-21T02:41:14;13.47;;;9.83;;
8698;SDS011;4386;51.236;6.742;2022-08-21T02:42:17;14.87;;;9.53;;
8698;SDS011;4386;51.236;6.742;2022-08-21T02:43:20;21.67;;;9.90;;
8698;SDS011;4386;51.236;6.742;2022-08-21T02:44:24;15.60;;;10.00;;
8698;SDS011;4386;51.236;6.742;2022-08-21T02:45:35;13.63;;;9.40;;
8698;SDS011;4386;51.236;6.742;2022-08-21T02:46:39;16.83;;;9.50;;
8698;SDS011;4386;51.236;6.742;2022-08-21T02:47:46;19.53;;;10.63;;
8698;SDS011;4386;51.236;6.742;2022-08-21T02:48:49;18.13;;;9.70;;
8698;SDS011;4386;51.236;6.742;2022-08-21T02:49:52;12.80;;;9.60;;
8698;SDS011;4386;51.236;6.742;2022-08-21T02:50:55;13.77;;;11.10;;
8698;SDS011;4386;51.236;6.742;2022-08-21T02:52:00;10.57;;;9.57;;
8698;SDS011;4386;51.236;6.742;2022-08-21T02:53:02;11.73;;;9.47;;
8698;SDS011;4386;51.236;6.742;2022-08-21T02:54:05;15.10;;;10.77;;
8698;SDS011;4386;51.236;6.742;2022-08-21T02:55:08;19.33;;;12.17;;
8698;SDS011;4386;51.236;6.742;2022-08-21T02:56:13;12.77;;;11.47;;
8698;SDS011;4386;51.236;6.742;2022-08-21T02:57:15;18.60;;;10.87;;
8698;SDS011;4386;51.236;6.742;2022-08-21T02:58:19;14.70;;;11.23;;
8698;SDS011;4386;51.236;6.742;2022-08-21T02:59:21;11.20;;;10.00;;
8698;SDS011;4386;51.236;6.742;2022-08-21T03:00:25;15.00;;;10.17;;
8698;SDS011;4386;51.236;6.742;2022-08-21T03:01:30;11.87;;;10.03;;
8698;SDS011;4386;51.236;6.742;2022-08-21T03:02:33;11.67;;;10.23;;
8698;SDS011;4386;51.236;6.742;2022-08-21T03:03:36;15.73;;;10.23;;
8698;SDS011;4386;51.236;6.742;2022-08-21T03:04:39;17.93;;;10.67;;
8698;SDS011;4386;51.236;6.742;2022-08-21T03:05:46;14.13;;;10.40;;
8698;SDS011;4386;51.236;6.742;2022-08-21T03:06:49;16.03;;;9.60;;
8698;SDS011;4386;51.236;6.742;2022-08-21T03:07:51;16.20;;;9.30;;
8698;SDS011;4386;51.236;6.742;2022-08-21T03:08:54;11.67;;;9.27;;
8698;SDS011;4386;51.236;6.742;2022-08-21T03:09:56;13.43;;;11.20;;
8698;SDS011;4386;51.236;6.742;2022-08-21T03:11:00;12.67;;;10.17;;
8698;SDS011;4386;51.236;6.742;2022-08-21T03:12:02;15.20;;;10.33;;
8698;SDS011;4386;51.236;6.742;2022-08-21T03:13:05;14.87;;;10.00;;
8698;SDS011;4386;51.236;6.742;2022-08-21T03:14:08;13.90;;;10.20;;
8698;SDS011;4386;51.236;6.742;2022-08-21T03:15:13;13.87;;;10.90;;
8698;SDS011;4386;51.236;6.742;2022-08-21T03:16:16;11.20;;;9.77;;
8698;SDS011;4386;51.236;6.742;2022-08-21T03:17:19;10.83;;;9.53;;
8698;SDS011;4386;51.236;6.742;2022-08-21T03:18:30;12.07;;;10.60;;
8698;SDS011;4386;51.236;6.742;2022-08-21T03:19:32;17.90;;;10.47;;
8698;SDS011;4386;51.236;6.742;2022-08-21T03:20:34;22.43;;;9.87;;
8698;SDS011;4386;51.236;6.742;2022-08-21T03:21:38;14.23;;;10.77;;
8698;SDS011;4386;51.236;6.742;2022-08-21T03:22:40;14.00;;;10.63;;
8698;SDS011;4386;51.236;6.742;2022-08-21T03:23:48;18.60;;;10.87;;
8698;SDS011;4386;51.236;6.742;2022-08-21T03:24:50;13.00;;;9.33;;
8698;SDS011;4386;51.236;6.742;2022-08-21T03:25:53;13.13;;;10.23;;
8698;SDS011;4386;51.236;6.742;2022-08-21T03:26:58;16.50;;;10.33;;
8698;SDS011;4386;51.236;6.742;2022-08-21T03:28:02;11.20;;;9.80;;
8698;SDS011;4386;51.236;6.742;2022-08-21T03:29:06;21.63;;;10.40;;
8698;SDS011;4386;51.236;6.742;2022-08-21T03:30:09;15.03;;;9.57;;
8698;SDS011;4386;51.236;6.742;2022-08-21T03:31:11;13.20;;;10.30;;
8698;SDS011;4386;51.236;6.742;2022-08-21T03:32:14;14.13;;;9.70;;
8698;SDS011;4386;51.236;6.742;2022-08-21T03:33:16;11.37;;;10.13;;
8698;SDS011;4386;51.236;6.742;2022-08-21T03:34:20;19.60;;;12.63;;
8698;SDS011;4386;51.236;6.742;2022-08-21T03:35:22;11.13;;;10.03;;
8698;SDS011;4386;51.236;6.742;2022-08-21T03:36:25;14.13;;;10.33;;
8698;SDS011;4386;51.236;6.742;2022-08-21T03:37:28;14.07;;;10.40;;
8698;SDS011;4386;51.236;6.742;2022-08-21T03:38:30;18.37;;;10.13;;
8698;SDS011;4386;51.236;6.742;2022-08-21T03:39:34;17.30;;;10.97;;
8698;SDS011;4386;51.236;6.742;2022-08-21T03:40:36;13.23;;;10.70;;
8698;SDS011;4386;51.236;6.742;2022-08-21T03:41:38;17.23;;;10.50;;
8698;SDS011;4386;51.236;6.742;2022-08-21T03:42:42;15.83;;;10.40;;
8698;SDS011;4386;51.236;6.742;2022-08-21T03:43:46;12.83;;;9.83;;
8698;SDS011;4386;51.236;6.742;2022-08-21T03:44:49;12.90;;;10.53;;
8698;SDS011;4386;51.236;6.742;2022-08-21T03:45:51;14.37;;;10.67;;
8698;SDS011;4386;51.236;6.742;2022-08-21T03:46:53;15.27;;;10.63;;
8698;SDS011;4386;51.236;6.742;2022-08-21T03:47:57;17.20;;;11.17;;
8698;SDS011;4386;51.236;6.742;2022-08-21T03:49:01;15.87;;;10.73;;
8698;SDS011;4386;51.236;6.742;2022-08-21T03:50:04;16.30;;;11.30;;
8698;SDS011;4386;51.236;6.742;2022-08-21T03:51:08;21.20;;;12.67;;
8698;SDS011;4386;51.236;6.742;2022-08-21T03:52:10;13.83;;;12.33;;
8698;SDS011;4386;51.236;6.742;2022-08-21T03:53:14;16.50;;;11.57;;
8698;SDS011;4386;51.236;6.742;2022-08-21T03:54:18;15.43;;;11.27;;
8698;SDS011;4386;51.236;6.742;2022-08-21T03:55:21;17.27;;;12.00;;
8698;SDS011;4386;51.236;6.742;2022-08-21T03:56:22;14.73;;;10.77;;
8698;SDS011;4386;51.236;6.742;2022-08-21T03:57:25;19.37;;;11.37;;
8698;SDS011;4386;51.236;6.742;2022-08-21T03:58:28;19.93;;;10.90;;
8698;SDS011;4386;51.236;6.742;2022-08-21T03:59:31;14.47;;;10.40;;
8698;SDS011;4386;51.236;6.742;2022-08-21T04:00:33;15.23;;;11.27;;
8698;SDS011;4386;51.236;6.742;2022-08-21T04:01:37;19.67;;;12.53;;
8698;SDS011;4386;51.236;6.742;2022-08-21T04:02:40;16.87;;;11.13;;
8698;SDS011;4386;51.236;6.742;2022-08-21T04:03:44;14.73;;;10.87;;
8698;SDS011;4386;51.236;6.742;2022-08-21T04:04:45;16.10;;;11.20;;
8698;SDS011;4386;51.236;6.742;2022-08-21T04:05:48;17.57;;;11.00;;
8698;SDS011;4386;51.236;6.742;2022-08-21T04:06:50;14.40;;;10.53;;
8698;SDS011;4386;51.236;6.742;2022-08-21T04:07:53;15.87;;;11.57;;
8698;SDS011;4386;51.236;6.742;2022-08-21T04:08:56;19.07;;;11.50;;
8698;SDS011;4386;51.236;6.742;2022-08-21T04:09:58;15.20;;;12.30;;
8698;SDS011;4386;51.236;6.742;2022-08-21T04:11:00;15.23;;;11.03;;
8698;SDS011;4386;51.236;6.742;2022-08-21T04:12:04;19.13;;;11.90;;
8698;SDS011;4386;51.236;6.742;2022-08-21T04:13:07;14.37;;;10.97;;
8698;SDS011;4386;51.236;6.742;2022-08-21T04:14:12;16.37;;;12.00;;
8698;SDS011;4386;51.236;6.742;2022-08-21T04:15:14;14.30;;;12.30;;
8698;SDS011;4386;51.236;6.742;2022-08-21T04:16:17;20.10;;;12.77;;
8698;SDS011;4386;51.236;6.742;2022-08-21T04:17:20;16.97;;;11.33;;
8698;SDS011;4386;51.236;6.742;2022-08-21T04:18:23;20.20;;;13.53;;
8698;SDS011;4386;51.236;6.742;2022-08-21T04:19:24;21.23;;;13.20;;
8698;SDS011;4386;51.236;6.742;2022-08-21T04:20:27;17.10;;;12.30;;
8698;SDS011;4386;51.236;6.742;2022-08-21T04:21:29;16.07;;;13.70;;
8698;SDS011;4386;51.236;6.742;2022-08-21T04:22:33;18.90;;;12.20;;
8698;SDS011;4386;51.236;6.742;2022-08-21T04:23:35;19.83;;;12.10;;
8698;SDS011;4386;51.236;6.742;2022-08-21T04:24:37;18.53;;;13.57;;
8698;SDS011;4386;51.236;6.742;2022-08-21T04:25:39;27.53;;;13.70;;
8698;SDS011;4386;51.236;6.742;2022-08-21T04:26:43;20.30;;;12.80;;
8698;SDS011;4386;51.236;6.742;2022-08-21T04:27:44;18.50;;;13.67;;
8698;SDS011;4386;51.236;6.742;2022-08-21T04:28:47;20.23;;;13.77;;
8698;SDS011;4386;51.236;6.742;2022-08-21T04:29:50;20.87;;;13.10;;
8698;SDS011;4386;51.236;6.742;2022-08-21T04:30:53;19.97;;;13.60;;
8698;SDS011;4386;51.236;6.742;2022-08-21T04:31:55;17.17;;;13.50;;
8698;SDS011;4386;51.236;6.742;2022-08-21T04:32:58;24.43;;;13.33;;
8698;SDS011;4386;51.236;6.742;2022-08-21T04:34:00;16.90;;;12.50;;
8698;SDS011;4386;51.236;6.742;2022-08-21T04:35:04;19.40;;;13.00;;
8698;SDS011;4386;51.236;6.742;2022-08-21T04:36:07;18.23;;;12.50;;
8698;SDS011;4386;51.236;6.742;2022-08-21T04:37:10;16.67;;;13.17;;
8698;SDS011;4386;51.236;6.742;2022-08-21T04:38:12;19.17;;;12.80;;
8698;SDS011;4386;51.236;6.742;2022-08-21T04:39:15;19.23;;;13.20;;
8698;SDS011;4386;51.236;6.742;2022-08-21T04:40:18;19.80;;;12.57;;
8698;SDS011;4386;51.236;6.742;2022-08-21T04:41:22;16.33;;;12.53;;
8698;SDS011;4386;51.236;6.742;2022-08-21T04:42:28;17.73;;;12.20;;
8698;SDS011;4386;51.236;6.742;2022-08-21T04:43:31;21.60;;;13.60;;
8698;SDS011;4386;51.236;6.742;2022-08-21T04:44:33;14.83;;;11.83;;
8698;SDS011;4386;51.236;6.742;2022-08-21T04:45:38;16.57;;;12.73;;
8698;SDS011;4386;51.236;6.742;2022-08-21T04:46:41;15.90;;;12.60;;
8698;SDS011;4386;51.236;6.742;2022-08-21T04:47:44;17.30;;;14.10;;
8698;SDS011;4386;51.236;6.742;2022-08-21T04:48:53;18.83;;;13.43;;
8698;SDS011;4386;51.236;6.742;2022-08-21T04:49:56;16.87;;;13.03;;
8698;SDS011;4386;51.236;6.742;2022-08-21T04:50:59;16.33;;;11.73;;
8698;SDS011;4386;51.236;6.742;2022-08-21T04:52:04;16.07;;;12.43;;
8698;SDS011;4386;51.236;6.742;2022-08-21T04:53:07;17.93;;;12.40;;
8698;SDS011;4386;51.236;6.742;2022-08-21T04:54:14;21.10;;;12.93;;
8698;SDS011;4386;51.236;6.742;2022-08-21T04:55:21;17.23;;;11.70;;
8698;SDS011;4386;51.236;6.742;2022-08-21T04:56:26;21.63;;;12.77;;
8698;SDS011;4386;51.236;6.742;2022-08-21T04:57:32;18.13;;;12.37;;
8698;SDS011;4386;51.236;6.742;2022-08-21T04:58:48;19.63;;;12.77;;
8698;SDS011;4386;51.236;6.742;2022-08-21T04:59:54;20.53;;;11.63;;
8698;SDS011;4386;51.236;6.742;2022-08-21T05:00:59;24.40;;;13.80;;
8698;SDS011;4386;51.236;6.742;2022-08-21T05:02:04;16.43;;;12.60;;
8698;SDS011;4386;51.236;6.742;2022-08-21T05:03:08;16.77;;;12.93;;
8698;SDS011;4386;51.236;6.742;2022-08-21T05:04:16;21.93;;;12.63;;
8698;SDS011;4386;51.236;6.742;2022-08-21T05:05:22;19.93;;;12.00;;
8698;SDS011;4386;51.236;6.742;2022-08-21T05:06:25;15.40;;;12.77;;
8698;SDS011;4386;51.236;6.742;2022-08-21T05:07:29;18.00;;;12.73;;
8698;SDS011;4386;51.236;6.742;2022-08-21T05:08:43;22.03;;;13.37;;
8698;SDS011;4386;51.236;6.742;2022-08-21T05:09:49;15.07;;;12.43;;
8698;SDS011;4386;51.236;6.742;2022-08-21T05:10:51;17.60;;;13.40;;
8698;SDS011;4386;51.236;6.742;2022-08-21T05:12:00;15.30;;;12.87;;
8698;SDS011;4386;51.236;6.742;2022-08-21T05:13:03;16.93;;;12.40;;
8698;SDS011;4386;51.236;6.742;2022-08-21T05:14:08;18.43;;;12.87;;
8698;SDS011;4386;51.236;6.742;2022-08-21T05:15:11;17.60;;;11.70;;
8698;SDS011;4386;51.236;6.742;2022-08-21T05:16:15;22.43;;;11.87;;
8698;SDS011;4386;51.236;6.742;2022-08-21T05:17:37;20.83;;;12.50;;
8698;SDS011;4386;51.236;6.742;2022-08-21T05:18:40;17.57;;;11.30;;
8698;SDS011;4386;51.236;6.742;2022-08-21T05:19:41;16.50;;;11.87;;
8698;SDS011;4386;51.236;6.742;2022-08-21T05:20:44;20.30;;;10.57;;
8698;SDS011;4386;51.236;6.742;2022-08-21T05:21:46;19.30;;;10.57;;
8698;SDS011;4386;51.236;6.742;2022-08-21T05:22:49;18.10;;;10.83;;
8698;SDS011;4386;51.236;6.742;2022-08-21T05:23:51;18.47;;;12.03;;
8698;SDS011;4386;51.236;6.742;2022-08-21T05:24:54;19.70;;;11.17;;
8698;SDS011;4386;51.236;6.742;2022-08-21T05:25:55;16.40;;;11.27;;
8698;SDS011;4386;51.236;6.742;2022-08-21T05:26:58;18.27;;;11.80;;
8698;SDS011;4386;51.236;6.742;2022-08-21T05:28:04;17.60;;;10.73;;
8698;SDS011;4386;51.236;6.742;2022-08-21T05:29:07;15.13;;;11.00;;
8698;SDS011;4386;51.236;6.742;2022-08-21T05:30:13;15.40;;;10.30;;
8698;SDS011;4386;51.236;6.742;2022-08-21T05:31:17;18.97;;;10.70;;
8698;SDS011;4386;51.236;6.742;2022-08-21T05:32:18;17.40;;;11.40;;
8698;SDS011;4386;51.236;6.742;2022-08-21T05:33:22;13.80;;;11.57;;
8698;SDS011;4386;51.236;6.742;2022-08-21T05:34:23;15.67;;;11.90;;
8698;SDS011;4386;51.236;6.742;2022-08-21T05:35:26;18.97;;;11.37;;
8698;SDS011;4386;51.236;6.742;2022-08-21T05:36:29;19.27;;;10.70;;
8698;SDS011;4386;51.236;6.742;2022-08-21T05:37:32;16.80;;;10.93;;
8698;SDS011;4386;51.236;6.742;2022-08-21T05:38:34;16.00;;;11.70;;
8698;SDS011;4386;51.236;6.742;2022-08-21T05:39:36;16.40;;;10.90;;
8698;SDS011;4386;51.236;6.742;2022-08-21T05:40:58;15.03;;;10.67;;
8698;SDS011;4386;51.236;6.742;2022-08-21T05:42:01;16.60;;;10.90;;
8698;SDS011;4386;51.236;6.742;2022-08-21T05:43:03;16.50;;;10.50;;
8698;SDS011;4386;51.236;6.742;2022-08-21T05:44:05;14.03;;;10.43;;
8698;SDS011;4386;51.236;6.742;2022-08-21T05:45:11;14.47;;;10.40;;
8698;SDS011;4386;51.236;6.742;2022-08-21T05:46:14;17.30;;;10.00;;
8698;SDS011;4386;51.236;6.742;2022-08-21T05:47:18;14.73;;;8.80;;
8698;SDS011;4386;51.236;6.742;2022-08-21T05:48:21;17.37;;;10.90;;
8698;SDS011;4386;51.236;6.742;2022-08-21T05:49:25;12.80;;;9.13;;
8698;SDS011;4386;51.236;6.742;2022-08-21T05:50:27;16.97;;;9.70;;
8698;SDS011;4386;51.236;6.742;2022-08-21T05:51:34;13.00;;;8.90;;
8698;SDS011;4386;51.236;6.742;2022-08-21T05:52:37;12.27;;;7.93;;
8698;SDS011;4386;51.236;6.742;2022-08-21T05:53:38;15.60;;;8.47;;
8698;SDS011;4386;51.236;6.742;2022-08-21T05:54:43;14.00;;;8.47;;
8698;SDS011;4386;51.236;6.742;2022-08-21T05:55:44;13.83;;;8.57;;
8698;SDS011;4386;51.236;6.742;2022-08-21T05:56:48;11.67;;;8.30;;
8698;SDS011;4386;51.236;6.742;2022-08-21T05:57:50;12.10;;;8.50;;
8698;SDS011;4386;51.236;6.742;2022-08-21T05:58:53;11.40;;;8.40;;
8698;SDS011;4386;51.236;6.742;2022-08-21T05:59:55;14.03;;;9.10;;
8698;SDS011;4386;51.236;6.742;2022-08-21T06:00:58;12.80;;;9.40;;
8698;SDS011;4386;51.236;6.742;2022-08-21T06:02:01;16.90;;;8.90;;
8698;SDS011;4386;51.236;6.742;2022-08-21T06:03:11;19.03;;;8.60;;
8698;SDS011;4386;51.236;6.742;2022-08-21T06:04:13;15.30;;;8.20;;
8698;SDS011;4386;51.236;6.742;2022-08-21T06:05:16;16.87;;;8.63;;
8698;SDS011;4386;51.236;6.742;2022-08-21T06:06:37;18.70;;;8.80;;
8698;SDS011;4386;51.236;6.742;2022-08-21T06:07:40;22.50;;;8.07;;
8698;SDS011;4386;51.236;6.742;2022-08-21T06:08:42;13.00;;;7.70;;
8698;SDS011;4386;51.236;6.742;2022-08-21T06:09:45;12.70;;;8.00;;
8698;SDS011;4386;51.236;6.742;2022-08-21T06:10:47;13.90;;;7.90;;
8698;SDS011;4386;51.236;6.742;2022-08-21T06:11:51;14.00;;;8.73;;
8698;SDS011;4386;51.236;6.742;2022-08-21T06:12:54;14.07;;;8.07;;
8698;SDS011;4386;51.236;6.742;2022-08-21T06:13:56;12.70;;;7.67;;
8698;SDS011;4386;51.236;6.742;2022-08-21T06:14:59;14.57;;;9.60;;
8698;SDS011;4386;51.236;6.742;2022-08-21T06:16:01;12.30;;;7.87;;
8698;SDS011;4386;51.236;6.742;2022-08-21T06:17:07;22.50;;;9.80;;
8698;SDS011;4386;51.236;6.742;2022-08-21T06:18:13;13.97;;;8.43;;
8698;SDS011;4386;51.236;6.742;2022-08-21T06:19:17;19.43;;;8.37;;
8698;SDS011;4386;51.236;6.742;2022-08-21T06:20:18;11.17;;;7.80;;
8698;SDS011;4386;51.236;6.742;2022-08-21T06:21:21;19.37;;;7.40;;
8698;SDS011;4386;51.236;6.742;2022-08-21T06:22:23;10.40;;;7.60;;
8698;SDS011;4386;51.236;6.742;2022-08-21T06:23:25;10.40;;;6.80;;
8698;SDS011;4386;51.236;6.742;2022-08-21T06:24:33;9.13;;;6.90;;
8698;SDS011;4386;51.236;6.742;2022-08-21T06:25:37;11.20;;;7.03;;
8698;SDS011;4386;51.236;6.742;2022-08-21T06:26:38;24.33;;;14.60;;
8698;SDS011;4386;51.236;6.742;2022-08-21T06:27:41;14.93;;;8.13;;
8698;SDS011;4386;51.236;6.742;2022-08-21T06:28:43;10.17;;;6.53;;